sensor_id;sensor_type;location;lat;lon;timestamp;temperature;humidity
47604;DHT22;33326;51.116;6.900;2022-12-07T00:04:40;5.70;99.90
47604;DHT22;33326;51.116;6.900;2022-12-07T00:09:42;5.80;99.90
47604;DHT22;33326;51.116;6.900;2022-12-07T00:14:46;5.80;99.90
47604;DHT22;33326;51.116;6.900;2022-12-07T00:19:48;5.80;99.90
47604;DHT22;33326;51.116;6.900;2022-12-07T00:24:50;5.70;99.90
47604;DHT22;33326;51.116;6.900;2022-12-07T00:29:53;5.70;99.90
47604;DHT22;33326;51.116;6.900;2022-12-07T00:34:55;5.70;99.90
47604;DHT22;33326;51.116;6.900;2022-12-07T00:39:56;5.80;99.90
47604;DHT22;33326;51.116;6.900;2022-12-07T00:44:59;5.70;99.90
47604;DHT22;33326;51.116;6.900;2022-12-07T00:50:01;5.70;99.90
47604;DHT22;33326;51.116;6.900;2022-12-07T00:55:04;5.70;99.90
47604;DHT22;33326;51.116;6.900;2022-12-07T01:00:08;5.70;99.90
47604;DHT22;33326;51.116;6.900;2022-12-07T01:05:10;5.70;99.90
47604;DHT22;33326;51.116;6.900;2022-12-07T01:10:12;5.70;99.90
47604;DHT22;33326;51.116;6.900;2022-12-07T01:15:15;5.70;99.90
47604;DHT22;33326;51.116;6.900;2022-12-07T01:20:17;5.70;99.90
47604;DHT22;33326;51.116;6.900;2022-12-07T01:25:19;5.70;99.90
47604;DHT22;33326;51.116;6.900;2022-12-07T01:30:22;5.60;99.90
47604;DHT22;33326;51.116;6.900;2022-12-07T01:35:25;5.70;99.90
47604;DHT22;33326;51.116;6.900;2022-12-07T01:40:26;5.60;99.90
47604;DHT22;33326;51.116;6.900;2022-12-07T01:45:40;5.70;99.90
47604;DHT22;33326;51.116;6.900;2022-12-07T01:50:44;5.70;99.90
47604;DHT22;33326;51.116;6.900;2022-12-07T01:55:49;5.80;99.90
47604;DHT22;33326;51.116;6.900;2022-12-07T02:00:53;5.80;99.90
47604;DHT22;33326;51.116;6.900;2022-12-07T02:05:56;5.80;99.90
47604;DHT22;33326;51.116;6.900;2022-12-07T02:11:00;5.80;99.90
47604;DHT22;33326;51.116;6.900;2022-12-07T02:16:23;5.80;99.90
47604;DHT22;33326;51.116;6.900;2022-12-07T02:21:34;5.80;99.90
47604;DHT22;33326;51.116;6.900;2022-12-07T02:27:19;5.80;99.90
47604;DHT22;33326;51.116;6.900;2022-12-07T02:32:31;5.80;99.90
47604;DHT22;33326;51.116;6.900;2022-12-07T02:37:40;5.70;99.90
47604;DHT22;33326;51.116;6.900;2022-12-07T02:42:49;5.70;99.90
47604;DHT22;33326;51.116;6.900;2022-12-07T02:47:56;5.70;99.90
47604;DHT22;33326;51.116;6.900;2022-12-07T02:53:00;5.70;99.90
47604;DHT22;33326;51.116;6.900;2022-12-07T02:58:24;5.70;99.90
47604;DHT22;33326;51.116;6.900;2022-12-07T03:03:31;5.70;99.90
47604;DHT22;33326;51.116;6.900;2022-12-07T03:08:39;5.70;99.90
47604;DHT22;33326;51.116;6.900;2022-12-07T03:13:45;5.70;99.90
47604;DHT22;33326;51.116;6.900;2022-12-07T03:18:55;5.80;99.90
47604;DHT22;33326;51.116;6.900;2022-12-07T03:24:00;5.90;99.90
47604;DHT22;33326;51.116;6.900;2022-12-07T03:29:06;5.80;99.90
47604;DHT22;33326;51.116;6.900;2022-12-07T03:34:14;5.80;99.90
47604;DHT22;33326;51.116;6.900;2022-12-07T03:39:22;5.80;99.90
47604;DHT22;33326;51.116;6.900;2022-12-07T03:44:26;5.80;99.90
47604;DHT22;33326;51.116;6.900;2022-12-07T03:49:32;5.80;99.90
47604;DHT22;33326;51.116;6.900;2022-12-07T03:54:41;5.80;99.90
47604;DHT22;33326;51.116;6.900;2022-12-07T03:59:46;5.80;99.90
47604;DHT22;33326;51.116;6.900;2022-12-07T04:04:49;5.80;99.90
47604;DHT22;33326;51.116;6.900;2022-12-07T04:09:51;5.80;99.90
47604;DHT22;33326;51.116;6.900;2022-12-07T04:14:55;5.80;99.90
47604;DHT22;33326;51.116;6.900;2022-12-07T04:19:58;5.80;99.90
47604;DHT22;33326;51.116;6.900;2022-12-07T04:25:00;5.80;99.90
47604;DHT22;33326;51.116;6.900;2022-12-07T04:30:02;5.80;99.90
47604;DHT22;33326;51.116;6.900;2022-12-07T04:35:06;5.80;99.90
47604;DHT22;33326;51.116;6.900;2022-12-07T04:40:09;5.80;99.90
47604;DHT22;33326;51.116;6.900;2022-12-07T04:45:11;5.80;99.90
47604;DHT22;33326;51.116;6.900;2022-12-07T04:50:14;5.90;99.90
47604;DHT22;33326;51.116;6.900;2022-12-07T04:55:16;6.00;99.90
47604;DHT22;33326;51.116;6.900;2022-12-07T05:00:19;5.90;99.90
47604;DHT22;33326;51.116;6.900;2022-12-07T05:05:22;5.90;99.90
47604;DHT22;33326;51.116;6.900;2022-12-07T05:10:24;5.90;99.90
47604;DHT22;33326;51.116;6.900;2022-12-07T05:15:26;5.90;99.90
47604;DHT22;33326;51.116;6.900;2022-12-07T05:20:29;5.80;99.90
47604;DHT22;33326;51.116;6.900;2022-12-07T05:25:31;5.70;99.90
47604;DHT22;33326;51.116;6.900;2022-12-07T05:30:33;5.50;99.90
47604;DHT22;33326;51.116;6.900;2022-12-07T05:35:36;5.60;99.90
47604;DHT22;33326;51.116;6.900;2022-12-07T05:40:38;5.50;99.90
47604;DHT22;33326;51.116;6.900;2022-12-07T05:45:40;5.50;99.90
47604;DHT22;33326;51.116;6.900;2022-12-07T05:50:43;5.50;99.90
47604;DHT22;33326;51.116;6.900;2022-12-07T05:55:45;5.50;99.90
47604;DHT22;33326;51.116;6.900;2022-12-07T06:00:47;5.40;99.90
47604;DHT22;33326;51.116;6.900;2022-12-07T06:05:52;5.40;99.90
47604;DHT22;33326;51.116;6.900;2022-12-07T06:10:53;5.50;99.90
47604;DHT22;33326;51.116;6.900;2022-12-07T06:16:09;5.50;99.90
47604;DHT22;33326;51.116;6.900;2022-12-07T06:21:12;5.50;99.90
47604;DHT22;33326;51.116;6.900;2022-12-07T06:26:15;5.60;99.90
47604;DHT22;33326;51.116;6.900;2022-12-07T06:31:17;5.60;99.90
47604;DHT22;33326;51.116;6.900;2022-12-07T06:36:20;5.60;99.90
47604;DHT22;33326;51.116;6.900;2022-12-07T06:41:22;5.70;99.90
47604;DHT22;33326;51.116;6.900;2022-12-07T06:46:25;5.50;99.90
47604;DHT22;33326;51.116;6.900;2022-12-07T06:51:29;5.30;99.90
47604;DHT22;33326;51.116;6.900;2022-12-07T06:56:30;5.20;99.90
47604;DHT22;33326;51.116;6.900;2022-12-07T07:01:33;5.40;99.90
47604;DHT22;33326;51.116;6.900;2022-12-07T07:06:36;5.50;99.90
47604;DHT22;33326;51.116;6.900;2022-12-07T07:11:38;5.50;99.90
47604;DHT22;33326;51.116;6.900;2022-12-07T07:16:40;5.40;99.90
47604;DHT22;33326;51.116;6.900;2022-12-07T07:21:43;5.40;99.90
47604;DHT22;33326;51.116;6.900;2022-12-07T07:26:45;5.40;99.90
47604;DHT22;33326;51.116;6.900;2022-12-07T07:31:46;5.30;99.90
47604;DHT22;33326;51.116;6.900;2022-12-07T07:36:49;5.30;99.90
47604;DHT22;33326;51.116;6.900;2022-12-07T07:41:51;5.30;99.90
47604;DHT22;33326;51.116;6.900;2022-12-07T07:46:59;5.40;99.90
47604;DHT22;33326;51.116;6.900;2022-12-07T07:52:02;5.40;99.90
47604;DHT22;33326;51.116;6.900;2022-12-07T07:57:04;5.40;99.90
47604;DHT22;33326;51.116;6.900;2022-12-07T08:02:07;5.40;99.90
47604;DHT22;33326;51.116;6.900;2022-12-07T08:07:12;5.50;99.90
47604;DHT22;33326;51.116;6.900;2022-12-07T08:12:14;5.40;99.90
47604;DHT22;33326;51.116;6.900;2022-12-07T08:17:16;5.20;99.90
47604;DHT22;33326;51.116;6.900;2022-12-07T08:22:19;5.30;99.90
47604;DHT22;33326;51.116;6.900;2022-12-07T08:27:21;5.30;99.90
47604;DHT22;33326;51.116;6.900;2022-12-07T08:32:27;5.40;99.90
47604;DHT22;33326;51.116;6.900;2022-12-07T08:37:31;5.50;99.90
47604;DHT22;33326;51.116;6.900;2022-12-07T08:42:33;5.50;99.90
47604;DHT22;33326;51.116;6.900;2022-12-07T08:47:43;5.60;99.90
47604;DHT22;33326;51.116;6.900;2022-12-07T08:52:51;5.60;99.90
47604;DHT22;33326;51.116;6.900;2022-12-07T08:57:54;5.60;99.90
47604;DHT22;33326;51.116;6.900;2022-12-07T09:02:56;5.70;99.90
47604;DHT22;33326;51.116;6.900;2022-12-07T09:08:00;5.70;99.90
47604;DHT22;33326;51.116;6.900;2022-12-07T09:13:02;5.70;99.90
47604;DHT22;33326;51.116;6.900;2022-12-07T09:18:04;5.80;99.90
47604;DHT22;33326;51.116;6.900;2022-12-07T09:23:07;5.80;99.90
47604;DHT22;33326;51.116;6.900;2022-12-07T09:28:09;5.80;99.90
47604;DHT22;33326;51.116;6.900;2022-12-07T09:33:11;5.80;99.90
47604;DHT22;33326;51.116;6.900;2022-12-07T09:38:14;5.90;99.90
47604;DHT22;33326;51.116;6.900;2022-12-07T09:43:19;6.00;99.90
47604;DHT22;33326;51.116;6.900;2022-12-07T09:48:22;6.20;99.90
47604;DHT22;33326;51.116;6.900;2022-12-07T09:53:32;6.30;99.90
47604;DHT22;33326;51.116;6.900;2022-12-07T09:58:34;6.30;99.90
47604;DHT22;33326;51.116;6.900;2022-12-07T10:03:38;6.30;99.90
47604;DHT22;33326;51.116;6.900;2022-12-07T10:08:41;6.50;99.90
47604;DHT22;33326;51.116;6.900;2022-12-07T10:13:45;6.50;99.90
47604;DHT22;33326;51.116;6.900;2022-12-07T10:18:49;6.30;99.90
47604;DHT22;33326;51.116;6.900;2022-12-07T10:24:03;6.30;99.90
47604;DHT22;33326;51.116;6.900;2022-12-07T10:29:14;6.30;99.90
47604;DHT22;33326;51.116;6.900;2022-12-07T10:34:22;6.20;99.90
47604;DHT22;33326;51.116;6.900;2022-12-07T10:39:26;6.30;99.90
47604;DHT22;33326;51.116;6.900;2022-12-07T10:44:30;6.30;99.90
47604;DHT22;33326;51.116;6.900;2022-12-07T10:55:25;6.40;99.90
47604;DHT22;33326;51.116;6.900;2022-12-07T11:00:31;6.40;99.90
47604;DHT22;33326;51.116;6.900;2022-12-07T11:05:39;6.40;99.90
47604;DHT22;33326;51.116;6.900;2022-12-07T11:10:52;6.50;99.90
47604;DHT22;33326;51.116;6.900;2022-12-07T11:16:07;6.50;99.90
47604;DHT22;33326;51.116;6.900;2022-12-07T11:21:18;6.70;99.90
47604;DHT22;33326;51.116;6.900;2022-12-07T11:26:34;6.70;99.90
47604;DHT22;33326;51.116;6.900;2022-12-07T11:31:51;6.90;99.90
47604;DHT22;33326;51.116;6.900;2022-12-07T11:37:02;7.00;99.90
47604;DHT22;33326;51.116;6.900;2022-12-07T11:42:13;7.20;99.90
47604;DHT22;33326;51.116;6.900;2022-12-07T11:47:20;7.30;99.90
47604;DHT22;33326;51.116;6.900;2022-12-07T11:52:27;7.50;99.90
47604;DHT22;33326;51.116;6.900;2022-12-07T11:57:36;7.60;99.90
47604;DHT22;33326;51.116;6.900;2022-12-07T12:02:43;7.40;99.90
47604;DHT22;33326;51.116;6.900;2022-12-07T12:07:52;7.60;99.90
47604;DHT22;33326;51.116;6.900;2022-12-07T12:18:53;7.50;99.90
47604;DHT22;33326;51.116;6.900;2022-12-07T12:24:02;7.60;99.90
47604;DHT22;33326;51.116;6.900;2022-12-07T12:29:06;7.60;99.90
47604;DHT22;33326;51.116;6.900;2022-12-07T12:34:37;7.60;99.90
47604;DHT22;33326;51.116;6.900;2022-12-07T12:39:40;7.50;99.90
47604;DHT22;33326;51.116;6.900;2022-12-07T12:45:04;7.60;99.90
47604;DHT22;33326;51.116;6.900;2022-12-07T12:50:16;7.80;99.90
47604;DHT22;33326;51.116;6.900;2022-12-07T12:55:22;8.10;99.90
47604;DHT22;33326;51.116;6.900;2022-12-07T13:00:26;8.30;99.90
47604;DHT22;33326;51.116;6.900;2022-12-07T13:05:31;8.40;99.90
47604;DHT22;33326;51.116;6.900;2022-12-07T13:10:39;8.30;99.90
47604;DHT22;33326;51.116;6.900;2022-12-07T13:15:43;8.00;99.90
47604;DHT22;33326;51.116;6.900;2022-12-07T13:20:52;7.70;99.90
47604;DHT22;33326;51.116;6.900;2022-12-07T13:25:59;7.50;99.90
47604;DHT22;33326;51.116;6.900;2022-12-07T13:31:11;7.40;99.90
47604;DHT22;33326;51.116;6.900;2022-12-07T13:36:20;7.40;99.90
47604;DHT22;33326;51.116;6.900;2022-12-07T13:41:23;7.40;99.90
47604;DHT22;33326;51.116;6.900;2022-12-07T13:46:35;7.40;99.90
47604;DHT22;33326;51.116;6.900;2022-12-07T13:51:40;7.40;99.90
47604;DHT22;33326;51.116;6.900;2022-12-07T13:56:42;7.50;99.90
47604;DHT22;33326;51.116;6.900;2022-12-07T14:01:46;7.50;99.90
47604;DHT22;33326;51.116;6.900;2022-12-07T14:06:51;7.50;99.90
47604;DHT22;33326;51.116;6.900;2022-12-07T14:11:55;7.50;99.90
47604;DHT22;33326;51.116;6.900;2022-12-07T14:17:00;7.40;99.90
47604;DHT22;33326;51.116;6.900;2022-12-07T14:22:08;7.50;99.90
47604;DHT22;33326;51.116;6.900;2022-12-07T14:27:18;7.50;99.90
47604;DHT22;33326;51.116;6.900;2022-12-07T14:32:23;7.50;99.90
47604;DHT22;33326;51.116;6.900;2022-12-07T14:37:30;7.40;99.90
47604;DHT22;33326;51.116;6.900;2022-12-07T14:42:32;7.40;99.90
47604;DHT22;33326;51.116;6.900;2022-12-07T14:47:35;7.40;99.90
47604;DHT22;33326;51.116;6.900;2022-12-07T14:52:39;7.20;99.90
47604;DHT22;33326;51.116;6.900;2022-12-07T14:57:41;7.10;99.90
47604;DHT22;33326;51.116;6.900;2022-12-07T15:02:43;7.00;99.90
47604;DHT22;33326;51.116;6.900;2022-12-07T15:07:48;6.90;99.90
47604;DHT22;33326;51.116;6.900;2022-12-07T15:12:50;6.90;99.90
47604;DHT22;33326;51.116;6.900;2022-12-07T15:17:52;6.90;99.90
47604;DHT22;33326;51.116;6.900;2022-12-07T15:22:56;6.90;99.90
47604;DHT22;33326;51.116;6.900;2022-12-07T15:27:58;6.80;99.90
47604;DHT22;33326;51.116;6.900;2022-12-07T15:33:00;6.50;99.90
47604;DHT22;33326;51.116;6.900;2022-12-07T15:38:03;6.30;99.90
47604;DHT22;33326;51.116;6.900;2022-12-07T15:43:07;6.20;99.90
47604;DHT22;33326;51.116;6.900;2022-12-07T15:48:29;6.10;99.90
47604;DHT22;33326;51.116;6.900;2022-12-07T15:53:33;6.00;99.90
47604;DHT22;33326;51.116;6.900;2022-12-07T15:58:35;5.90;99.90
47604;DHT22;33326;51.116;6.900;2022-12-07T16:03:38;5.90;99.90
47604;DHT22;33326;51.116;6.900;2022-12-07T16:08:43;5.90;99.90
47604;DHT22;33326;51.116;6.900;2022-12-07T16:13:45;5.80;99.90
47604;DHT22;33326;51.116;6.900;2022-12-07T16:18:48;5.80;99.90
47604;DHT22;33326;51.116;6.900;2022-12-07T16:23:52;5.80;99.90
47604;DHT22;33326;51.116;6.900;2022-12-07T16:28:54;5.80;99.90
47604;DHT22;33326;51.116;6.900;2022-12-07T16:33:57;5.90;99.90
47604;DHT22;33326;51.116;6.900;2022-12-07T16:39:01;6.00;99.90
47604;DHT22;33326;51.116;6.900;2022-12-07T16:44:05;6.00;99.90
47604;DHT22;33326;51.116;6.900;2022-12-07T16:49:11;6.10;99.90
47604;DHT22;33326;51.116;6.900;2022-12-07T16:54:14;6.00;99.90
47604;DHT22;33326;51.116;6.900;2022-12-07T16:59:16;6.00;99.90
47604;DHT22;33326;51.116;6.900;2022-12-07T17:04:18;5.90;99.90
47604;DHT22;33326;51.116;6.900;2022-12-07T17:09:21;5.90;99.90
47604;DHT22;33326;51.116;6.900;2022-12-07T17:14:23;6.00;99.90
47604;DHT22;33326;51.116;6.900;2022-12-07T17:19:42;6.00;99.90
47604;DHT22;33326;51.116;6.900;2022-12-07T17:24:45;5.90;99.90
47604;DHT22;33326;51.116;6.900;2022-12-07T17:29:47;6.00;99.90
47604;DHT22;33326;51.116;6.900;2022-12-07T17:34:49;6.00;99.90
47604;DHT22;33326;51.116;6.900;2022-12-07T17:39:53;6.10;99.90
47604;DHT22;33326;51.116;6.900;2022-12-07T17:44:57;6.00;99.90
47604;DHT22;33326;51.116;6.900;2022-12-07T17:49:59;6.00;99.90
47604;DHT22;33326;51.116;6.900;2022-12-07T17:55:03;6.00;99.90
47604;DHT22;33326;51.116;6.900;2022-12-07T18:00:05;6.10;99.90
47604;DHT22;33326;51.116;6.900;2022-12-07T18:05:12;6.00;99.90
47604;DHT22;33326;51.116;6.900;2022-12-07T18:10:15;6.10;99.90
47604;DHT22;33326;51.116;6.900;2022-12-07T18:15:17;6.20;99.90
47604;DHT22;33326;51.116;6.900;2022-12-07T18:20:19;6.30;99.90
47604;DHT22;33326;51.116;6.900;2022-12-07T18:25:22;6.30;99.90
47604;DHT22;33326;51.116;6.900;2022-12-07T18:30:24;6.20;99.90
47604;DHT22;33326;51.116;6.900;2022-12-07T18:35:26;6.20;99.90
47604;DHT22;33326;51.116;6.900;2022-12-07T18:40:29;6.20;99.90
47604;DHT22;33326;51.116;6.900;2022-12-07T18:45:34;6.20;99.90
47604;DHT22;33326;51.116;6.900;2022-12-07T18:50:35;6.10;99.90
47604;DHT22;33326;51.116;6.900;2022-12-07T18:55:39;6.10;99.90
47604;DHT22;33326;51.116;6.900;2022-12-07T19:00:40;6.00;99.90
47604;DHT22;33326;51.116;6.900;2022-12-07T19:05:42;6.20;99.90
47604;DHT22;33326;51.116;6.900;2022-12-07T19:10:45;6.20;99.90
47604;DHT22;33326;51.116;6.900;2022-12-07T19:15:47;6.10;99.90
47604;DHT22;33326;51.116;6.900;2022-12-07T19:20:49;6.00;99.90
47604;DHT22;33326;51.116;6.900;2022-12-07T19:25:54;5.90;99.90
47604;DHT22;33326;51.116;6.900;2022-12-07T19:30:56;5.90;99.90
47604;DHT22;33326;51.116;6.900;2022-12-07T19:35:58;5.80;99.90
47604;DHT22;33326;51.116;6.900;2022-12-07T19:41:04;5.80;99.90
47604;DHT22;33326;51.116;6.900;2022-12-07T19:46:06;5.80;99.90
47604;DHT22;33326;51.116;6.900;2022-12-07T19:51:09;5.80;99.90
47604;DHT22;33326;51.116;6.900;2022-12-07T19:56:15;5.80;99.90
47604;DHT22;33326;51.116;6.900;2022-12-07T20:01:17;5.70;99.90
47604;DHT22;33326;51.116;6.900;2022-12-07T20:06:19;5.70;99.90
47604;DHT22;33326;51.116;6.900;2022-12-07T20:11:23;5.60;99.90
47604;DHT22;33326;51.116;6.900;2022-12-07T20:16:42;5.60;99.90
47604;DHT22;33326;51.116;6.900;2022-12-07T20:21:45;5.50;99.90
47604;DHT22;33326;51.116;6.900;2022-12-07T20:26:50;5.50;99.90
47604;DHT22;33326;51.116;6.900;2022-12-07T20:31:53;5.40;99.90
47604;DHT22;33326;51.116;6.900;2022-12-07T20:36:55;5.30;99.90
47604;DHT22;33326;51.116;6.900;2022-12-07T20:41:58;5.30;99.90
47604;DHT22;33326;51.116;6.900;2022-12-07T20:47:32;5.30;99.90
47604;DHT22;33326;51.116;6.900;2022-12-07T20:52:34;5.20;99.90
47604;DHT22;33326;51.116;6.900;2022-12-07T20:57:37;5.30;99.90
47604;DHT22;33326;51.116;6.900;2022-12-07T21:02:39;5.40;99.90
47604;DHT22;33326;51.116;6.900;2022-12-07T21:07:41;5.40;99.90
47604;DHT22;33326;51.116;6.900;2022-12-07T21:12:44;5.30;99.90
47604;DHT22;33326;51.116;6.900;2022-12-07T21:17:46;5.30;99.90
47604;DHT22;33326;51.116;6.900;2022-12-07T21:22:48;5.20;99.90
47604;DHT22;33326;51.116;6.900;2022-12-07T21:27:51;5.30;99.90
47604;DHT22;33326;51.116;6.900;2022-12-07T21:32:53;5.30;99.90
47604;DHT22;33326;51.116;6.900;2022-12-07T21:37:54;5.20;99.90
47604;DHT22;33326;51.116;6.900;2022-12-07T21:42:58;5.20;99.90
47604;DHT22;33326;51.116;6.900;2022-12-07T21:47:59;5.10;99.90
47604;DHT22;33326;51.116;6.900;2022-12-07T21:53:01;5.00;99.90
47604;DHT22;33326;51.116;6.900;2022-12-07T21:58:04;5.10;99.90
47604;DHT22;33326;51.116;6.900;2022-12-07T22:03:07;5.10;99.90
47604;DHT22;33326;51.116;6.900;2022-12-07T22:08:12;5.10;99.90
47604;DHT22;33326;51.116;6.900;2022-12-07T22:13:15;5.10;99.90
47604;DHT22;33326;51.116;6.900;2022-12-07T22:18:17;5.20;99.90
47604;DHT22;33326;51.116;6.900;2022-12-07T22:23:19;5.20;99.90
47604;DHT22;33326;51.116;6.900;2022-12-07T22:28:22;5.10;99.90
47604;DHT22;33326;51.116;6.900;2022-12-07T22:33:24;5.10;99.90
47604;DHT22;33326;51.116;6.900;2022-12-07T22:38:26;5.00;99.90
47604;DHT22;33326;51.116;6.900;2022-12-07T22:43:30;5.00;99.90
47604;DHT22;33326;51.116;6.900;2022-12-07T22:48:32;5.20;99.90
47604;DHT22;33326;51.116;6.900;2022-12-07T22:53:34;5.20;99.90
47604;DHT22;33326;51.116;6.900;2022-12-07T22:58:38;5.20;99.90
47604;DHT22;33326;51.116;6.900;2022-12-07T23:03:40;5.20;99.90
47604;DHT22;33326;51.116;6.900;2022-12-07T23:08:43;5.10;99.90
47604;DHT22;33326;51.116;6.900;2022-12-07T23:13:46;5.10;99.90
47604;DHT22;33326;51.116;6.900;2022-12-07T23:18:48;5.20;99.90
47604;DHT22;33326;51.116;6.900;2022-12-07T23:23:50;5.20;99.90
47604;DHT22;33326;51.116;6.900;2022-12-07T23:28:53;5.30;99.90
47604;DHT22;33326;51.116;6.900;2022-12-07T23:33:55;5.30;99.90
47604;DHT22;33326;51.116;6.900;2022-12-07T23:38:57;5.20;99.90
47604;DHT22;33326;51.116;6.900;2022-12-07T23:44:01;5.00;99.90
47604;DHT22;33326;51.116;6.900;2022-12-07T23:49:04;5.00;99.90
47604;DHT22;33326;51.116;6.900;2022-12-07T23:54:06;4.90;99.90
47604;DHT22;33326;51.116;6.900;2022-12-07T23:59:10;4.90;99.90
